sensor_id;sensor_type;location;lat;lon;timestamp;P1;durP1;ratioP1;P2;durP2;ratioP2
23684;SDS011;12020;51.384;6.908;2022-07-24T00:00:31;6.53;;;5.93;;
23684;SDS011;12020;51.384;6.908;2022-07-24T00:02:57;6.63;;;5.80;;
23684;SDS011;12020;51.384;6.908;2022-07-24T00:05:23;6.13;;;5.53;;
23684;SDS011;12020;51.384;6.908;2022-07-24T00:07:48;6.38;;;5.70;;
23684;SDS011;12020;51.384;6.908;2022-07-24T00:10:14;5.80;;;5.30;;
23684;SDS011;12020;51.384;6.908;2022-07-24T00:12:40;5.90;;;5.50;;
23684;SDS011;12020;51.384;6.908;2022-07-24T00:15:06;7.37;;;5.67;;
23684;SDS011;12020;51.384;6.908;2022-07-24T00:17:32;5.93;;;5.43;;
23684;SDS011;12020;51.384;6.908;2022-07-24T00:19:57;5.47;;;5.05;;
23684;SDS011;12020;51.384;6.908;2022-07-24T00:22:23;6.60;;;5.47;;
23684;SDS011;12020;51.384;6.908;2022-07-24T00:24:49;6.10;;;5.60;;
23684;SDS011;12020;51.384;6.908;2022-07-24T00:27:15;5.27;;;4.83;;
23684;SDS011;12020;51.384;6.908;2022-07-24T00:29:40;6.57;;;5.97;;
23684;SDS011;12020;51.384;6.908;2022-07-24T00:32:06;6.70;;;6.10;;
23684;SDS011;12020;51.384;6.908;2022-07-24T00:34:32;6.17;;;5.63;;
23684;SDS011;12020;51.384;6.908;2022-07-24T00:36:58;6.03;;;5.40;;
23684;SDS011;12020;51.384;6.908;2022-07-24T00:39:23;5.57;;;5.07;;
23684;SDS011;12020;51.384;6.908;2022-07-24T00:41:50;5.73;;;5.23;;
23684;SDS011;12020;51.384;6.908;2022-07-24T00:44:19;5.93;;;5.35;;
23684;SDS011;12020;51.384;6.908;2022-07-24T00:46:46;6.33;;;5.17;;
23684;SDS011;12020;51.384;6.908;2022-07-24T00:49:13;6.95;;;5.53;;
23684;SDS011;12020;51.384;6.908;2022-07-24T00:51:43;5.47;;;5.00;;
23684;SDS011;12020;51.384;6.908;2022-07-24T00:54:12;5.55;;;5.05;;
23684;SDS011;12020;51.384;6.908;2022-07-24T00:56:41;6.28;;;5.68;;
23684;SDS011;12020;51.384;6.908;2022-07-24T00:59:09;5.57;;;5.00;;
23684;SDS011;12020;51.384;6.908;2022-07-24T01:01:36;5.87;;;5.30;;
23684;SDS011;12020;51.384;6.908;2022-07-24T01:04:03;6.47;;;5.87;;
23684;SDS011;12020;51.384;6.908;2022-07-24T01:06:30;6.30;;;5.70;;
23684;SDS011;12020;51.384;6.908;2022-07-24T01:08:58;6.28;;;5.68;;
23684;SDS011;12020;51.384;6.908;2022-07-24T01:11:24;6.00;;;5.47;;
23684;SDS011;12020;51.384;6.908;2022-07-24T01:13:51;6.00;;;5.50;;
23684;SDS011;12020;51.384;6.908;2022-07-24T01:16:20;6.15;;;5.43;;
23684;SDS011;12020;51.384;6.908;2022-07-24T01:18:45;6.57;;;5.97;;
23684;SDS011;12020;51.384;6.908;2022-07-24T01:21:13;6.60;;;6.00;;
23684;SDS011;12020;51.384;6.908;2022-07-24T01:23:40;6.30;;;5.80;;
23684;SDS011;12020;51.384;6.908;2022-07-24T01:26:09;6.47;;;5.88;;
23684;SDS011;12020;51.384;6.908;2022-07-24T01:31:04;7.22;;;6.53;;
23684;SDS011;12020;51.384;6.908;2022-07-24T01:33:29;6.97;;;6.27;;
23684;SDS011;12020;51.384;6.908;2022-07-24T01:35:55;7.07;;;6.38;;
23684;SDS011;12020;51.384;6.908;2022-07-24T01:38:21;6.80;;;6.20;;
23684;SDS011;12020;51.384;6.908;2022-07-24T01:40:46;6.90;;;6.20;;
23684;SDS011;12020;51.384;6.908;2022-07-24T01:43:12;7.20;;;6.50;;
23684;SDS011;12020;51.384;6.908;2022-07-24T01:45:38;6.80;;;6.20;;
23684;SDS011;12020;51.384;6.908;2022-07-24T01:48:04;6.80;;;6.20;;
23684;SDS011;12020;51.384;6.908;2022-07-24T01:50:30;6.90;;;6.30;;
23684;SDS011;12020;51.384;6.908;2022-07-24T01:52:56;7.57;;;6.80;;
23684;SDS011;12020;51.384;6.908;2022-07-24T01:55:22;7.20;;;6.50;;
23684;SDS011;12020;51.384;6.908;2022-07-24T01:57:49;6.80;;;6.20;;
23684;SDS011;12020;51.384;6.908;2022-07-24T02:00:15;7.22;;;6.57;;
23684;SDS011;12020;51.384;6.908;2022-07-24T02:02:42;7.13;;;6.43;;
23684;SDS011;12020;51.384;6.908;2022-07-24T02:05:09;7.22;;;6.53;;
23684;SDS011;12020;51.384;6.908;2022-07-24T02:07:37;7.28;;;6.57;;
23684;SDS011;12020;51.384;6.908;2022-07-24T02:10:04;7.07;;;6.40;;
23684;SDS011;12020;51.384;6.908;2022-07-24T02:12:30;7.15;;;6.45;;
23684;SDS011;12020;51.384;6.908;2022-07-24T02:14:55;7.18;;;6.57;;
23684;SDS011;12020;51.384;6.908;2022-07-24T02:17:22;7.18;;;6.57;;
23684;SDS011;12020;51.384;6.908;2022-07-24T02:19:47;7.47;;;6.80;;
23684;SDS011;12020;51.384;6.908;2022-07-24T02:22:13;7.63;;;7.03;;
23684;SDS011;12020;51.384;6.908;2022-07-24T02:24:39;7.90;;;7.20;;
23684;SDS011;12020;51.384;6.908;2022-07-24T02:27:04;7.83;;;7.20;;
23684;SDS011;12020;51.384;6.908;2022-07-24T02:29:31;7.00;;;6.40;;
23684;SDS011;12020;51.384;6.908;2022-07-24T02:31:57;7.30;;;6.60;;
23684;SDS011;12020;51.384;6.908;2022-07-24T02:34:24;7.97;;;7.18;;
23684;SDS011;12020;51.384;6.908;2022-07-24T02:36:49;7.10;;;6.60;;
23684;SDS011;12020;51.384;6.908;2022-07-24T02:39:15;7.28;;;6.68;;
23684;SDS011;12020;51.384;6.908;2022-07-24T02:41:40;7.60;;;6.90;;
23684;SDS011;12020;51.384;6.908;2022-07-24T02:44:06;7.68;;;6.97;;
23684;SDS011;12020;51.384;6.908;2022-07-24T02:46:32;7.28;;;6.68;;
23684;SDS011;12020;51.384;6.908;2022-07-24T02:48:58;7.63;;;6.97;;
23684;SDS011;12020;51.384;6.908;2022-07-24T02:51:23;7.80;;;7.10;;
23684;SDS011;12020;51.384;6.908;2022-07-24T02:53:49;7.40;;;6.80;;
23684;SDS011;12020;51.384;6.908;2022-07-24T02:56:14;7.10;;;6.50;;
23684;SDS011;12020;51.384;6.908;2022-07-24T02:58:40;7.25;;;6.53;;
23684;SDS011;12020;51.384;6.908;2022-07-24T03:01:06;7.00;;;6.40;;
23684;SDS011;12020;51.384;6.908;2022-07-24T03:03:31;7.20;;;6.50;;
23684;SDS011;12020;51.384;6.908;2022-07-24T03:05:57;7.10;;;6.50;;
23684;SDS011;12020;51.384;6.908;2022-07-24T03:08:23;6.93;;;6.33;;
23684;SDS011;12020;51.384;6.908;2022-07-24T03:10:48;7.75;;;6.47;;
23684;SDS011;12020;51.384;6.908;2022-07-24T03:13:14;7.10;;;6.50;;
23684;SDS011;12020;51.384;6.908;2022-07-24T03:15:40;6.30;;;5.75;;
23684;SDS011;12020;51.384;6.908;2022-07-24T03:18:06;7.03;;;6.43;;
23684;SDS011;12020;51.384;6.908;2022-07-24T03:20:32;6.83;;;6.23;;
23684;SDS011;12020;51.384;6.908;2022-07-24T03:22:57;6.68;;;6.18;;
23684;SDS011;12020;51.384;6.908;2022-07-24T03:25:23;6.95;;;6.35;;
23684;SDS011;12020;51.384;6.908;2022-07-24T03:27:49;7.32;;;6.60;;
23684;SDS011;12020;51.384;6.908;2022-07-24T03:30:16;6.70;;;6.00;;
23684;SDS011;12020;51.384;6.908;2022-07-24T03:32:42;7.00;;;6.23;;
23684;SDS011;12020;51.384;6.908;2022-07-24T03:35:08;6.53;;;6.03;;
23684;SDS011;12020;51.384;6.908;2022-07-24T03:37:35;7.07;;;6.47;;
23684;SDS011;12020;51.384;6.908;2022-07-24T03:40:01;7.00;;;6.30;;
23684;SDS011;12020;51.384;6.908;2022-07-24T03:42:27;7.20;;;6.50;;
23684;SDS011;12020;51.384;6.908;2022-07-24T03:44:54;7.10;;;6.50;;
23684;SDS011;12020;51.384;6.908;2022-07-24T03:47:20;6.18;;;5.68;;
23684;SDS011;12020;51.384;6.908;2022-07-24T03:49:46;7.05;;;6.45;;
23684;SDS011;12020;51.384;6.908;2022-07-24T03:52:12;7.45;;;6.85;;
23684;SDS011;12020;51.384;6.908;2022-07-24T03:54:37;7.10;;;6.40;;
23684;SDS011;12020;51.384;6.908;2022-07-24T03:57:04;7.50;;;6.80;;
23684;SDS011;12020;51.384;6.908;2022-07-24T03:59:31;6.97;;;6.28;;
23684;SDS011;12020;51.384;6.908;2022-07-24T04:04:25;7.05;;;6.45;;
23684;SDS011;12020;51.384;6.908;2022-07-24T04:06:51;7.38;;;6.32;;
23684;SDS011;12020;51.384;6.908;2022-07-24T04:09:19;7.35;;;6.75;;
23684;SDS011;12020;51.384;6.908;2022-07-24T04:11:44;7.18;;;6.53;;
23684;SDS011;12020;51.384;6.908;2022-07-24T04:14:11;7.20;;;6.60;;
23684;SDS011;12020;51.384;6.908;2022-07-24T04:16:38;7.50;;;6.80;;
23684;SDS011;12020;51.384;6.908;2022-07-24T04:19:03;7.37;;;6.77;;
23684;SDS011;12020;51.384;6.908;2022-07-24T04:21:29;7.10;;;6.50;;
23684;SDS011;12020;51.384;6.908;2022-07-24T04:23:55;7.20;;;6.60;;
23684;SDS011;12020;51.384;6.908;2022-07-24T04:26:20;7.05;;;6.45;;
23684;SDS011;12020;51.384;6.908;2022-07-24T04:28:46;6.88;;;6.28;;
23684;SDS011;12020;51.384;6.908;2022-07-24T04:31:12;7.45;;;6.75;;
23684;SDS011;12020;51.384;6.908;2022-07-24T04:33:37;8.07;;;6.67;;
23684;SDS011;12020;51.384;6.908;2022-07-24T04:36:04;6.80;;;6.20;;
23684;SDS011;12020;51.384;6.908;2022-07-24T04:38:32;7.27;;;6.57;;
23684;SDS011;12020;51.384;6.908;2022-07-24T04:40:58;7.70;;;7.00;;
23684;SDS011;12020;51.384;6.908;2022-07-24T04:43:24;6.97;;;6.37;;
23684;SDS011;12020;51.384;6.908;2022-07-24T04:45:49;7.40;;;6.80;;
23684;SDS011;12020;51.384;6.908;2022-07-24T04:48:16;7.00;;;6.40;;
23684;SDS011;12020;51.384;6.908;2022-07-24T04:50:42;7.70;;;7.00;;
23684;SDS011;12020;51.384;6.908;2022-07-24T04:53:07;7.25;;;6.65;;
23684;SDS011;12020;51.384;6.908;2022-07-24T04:55:33;7.18;;;6.57;;
23684;SDS011;12020;51.384;6.908;2022-07-24T04:57:59;7.17;;;6.57;;
23684;SDS011;12020;51.384;6.908;2022-07-24T05:00:24;7.47;;;6.80;;
23684;SDS011;12020;51.384;6.908;2022-07-24T05:02:51;6.93;;;6.33;;
23684;SDS011;12020;51.384;6.908;2022-07-24T05:05:17;7.20;;;6.60;;
23684;SDS011;12020;51.384;6.908;2022-07-24T05:07:42;6.80;;;6.20;;
23684;SDS011;12020;51.384;6.908;2022-07-24T05:10:08;7.18;;;6.57;;
23684;SDS011;12020;51.384;6.908;2022-07-24T05:12:34;6.80;;;6.30;;
23684;SDS011;12020;51.384;6.908;2022-07-24T05:15:00;7.28;;;6.68;;
23684;SDS011;12020;51.384;6.908;2022-07-24T05:17:26;6.55;;;6.00;;
23684;SDS011;12020;51.384;6.908;2022-07-24T05:19:51;7.00;;;6.30;;
23684;SDS011;12020;51.384;6.908;2022-07-24T05:22:17;6.90;;;6.30;;
23684;SDS011;12020;51.384;6.908;2022-07-24T05:24:43;7.10;;;6.43;;
23684;SDS011;12020;51.384;6.908;2022-07-24T05:27:08;6.75;;;6.05;;
23684;SDS011;12020;51.384;6.908;2022-07-24T05:29:34;6.63;;;6.03;;
23684;SDS011;12020;51.384;6.908;2022-07-24T05:32:00;6.45;;;5.85;;
23684;SDS011;12020;51.384;6.908;2022-07-24T05:34:25;7.00;;;6.30;;
23684;SDS011;12020;51.384;6.908;2022-07-24T05:36:51;6.40;;;5.80;;
23684;SDS011;12020;51.384;6.908;2022-07-24T05:39:17;6.97;;;6.27;;
23684;SDS011;12020;51.384;6.908;2022-07-24T05:41:43;6.90;;;6.30;;
23684;SDS011;12020;51.384;6.908;2022-07-24T05:44:08;6.90;;;6.30;;
23684;SDS011;12020;51.384;6.908;2022-07-24T05:46:35;6.85;;;6.15;;
23684;SDS011;12020;51.384;6.908;2022-07-24T05:49:01;6.82;;;6.22;;
23684;SDS011;12020;51.384;6.908;2022-07-24T05:51:26;6.80;;;6.20;;
23684;SDS011;12020;51.384;6.908;2022-07-24T05:53:52;6.80;;;6.20;;
23684;SDS011;12020;51.384;6.908;2022-07-24T05:56:18;6.80;;;6.20;;
23684;SDS011;12020;51.384;6.908;2022-07-24T05:58:43;6.83;;;6.23;;
23684;SDS011;12020;51.384;6.908;2022-07-24T06:01:09;6.60;;;6.10;;
23684;SDS011;12020;51.384;6.908;2022-07-24T06:03:37;7.10;;;6.40;;
23684;SDS011;12020;51.384;6.908;2022-07-24T06:06:05;7.03;;;6.32;;
23684;SDS011;12020;51.384;6.908;2022-07-24T06:08:31;6.88;;;6.28;;
23684;SDS011;12020;51.384;6.908;2022-07-24T06:10:57;5.90;;;5.47;;
23684;SDS011;12020;51.384;6.908;2022-07-24T06:13:23;6.33;;;5.83;;
23684;SDS011;12020;51.384;6.908;2022-07-24T06:15:48;6.50;;;5.90;;
23684;SDS011;12020;51.384;6.908;2022-07-24T06:18:14;6.90;;;6.30;;
23684;SDS011;12020;51.384;6.908;2022-07-24T06:20:40;6.53;;;5.93;;
23684;SDS011;12020;51.384;6.908;2022-07-24T06:23:05;6.90;;;6.35;;
23684;SDS011;12020;51.384;6.908;2022-07-24T06:25:31;6.57;;;6.05;;
23684;SDS011;12020;51.384;6.908;2022-07-24T06:27:57;6.80;;;6.20;;
23684;SDS011;12020;51.384;6.908;2022-07-24T06:30:23;7.27;;;6.40;;
23684;SDS011;12020;51.384;6.908;2022-07-24T06:32:52;6.43;;;5.82;;
23684;SDS011;12020;51.384;6.908;2022-07-24T06:35:19;6.80;;;6.20;;
23684;SDS011;12020;51.384;6.908;2022-07-24T06:37:45;6.47;;;5.88;;
23684;SDS011;12020;51.384;6.908;2022-07-24T06:40:11;6.55;;;5.95;;
23684;SDS011;12020;51.384;6.908;2022-07-24T06:42:37;6.30;;;5.80;;
23684;SDS011;12020;51.384;6.908;2022-07-24T06:45:03;6.40;;;5.80;;
23684;SDS011;12020;51.384;6.908;2022-07-24T06:47:29;6.30;;;5.80;;
23684;SDS011;12020;51.384;6.908;2022-07-24T06:49:56;6.75;;;6.03;;
23684;SDS011;12020;51.384;6.908;2022-07-24T06:52:22;6.50;;;6.00;;
23684;SDS011;12020;51.384;6.908;2022-07-24T06:54:49;6.72;;;5.95;;
23684;SDS011;12020;51.384;6.908;2022-07-24T06:57:15;6.28;;;5.72;;
23684;SDS011;12020;51.384;6.908;2022-07-24T06:59:41;6.88;;;6.18;;
23684;SDS011;12020;51.384;6.908;2022-07-24T07:02:07;7.13;;;6.17;;
23684;SDS011;12020;51.384;6.908;2022-07-24T07:04:34;6.90;;;6.20;;
23684;SDS011;12020;51.384;6.908;2022-07-24T07:07:01;6.78;;;6.03;;
23684;SDS011;12020;51.384;6.908;2022-07-24T07:14:32;6.53;;;5.93;;
23684;SDS011;12020;51.384;6.908;2022-07-24T07:16:59;6.22;;;5.63;;
23684;SDS011;12020;51.384;6.908;2022-07-24T07:19:29;9.07;;;6.00;;
23684;SDS011;12020;51.384;6.908;2022-07-24T07:21:57;6.35;;;5.78;;
23684;SDS011;12020;51.384;6.908;2022-07-24T07:24:25;6.10;;;5.60;;
23684;SDS011;12020;51.384;6.908;2022-07-24T07:29:24;6.78;;;5.93;;
23684;SDS011;12020;51.384;6.908;2022-07-24T07:32:07;6.50;;;5.95;;
23684;SDS011;12020;51.384;6.908;2022-07-24T07:34:37;6.40;;;5.80;;
23684;SDS011;12020;51.384;6.908;2022-07-24T07:37:03;6.17;;;5.67;;
23684;SDS011;12020;51.384;6.908;2022-07-24T07:39:32;6.25;;;5.70;;
23684;SDS011;12020;51.384;6.908;2022-07-24T07:41:58;6.10;;;5.60;;
23684;SDS011;12020;51.384;6.908;2022-07-24T07:44:26;7.43;;;5.40;;
23684;SDS011;12020;51.384;6.908;2022-07-24T07:46:53;6.47;;;5.70;;
23684;SDS011;12020;51.384;6.908;2022-07-24T07:49:25;7.57;;;6.30;;
23684;SDS011;12020;51.384;6.908;2022-07-24T07:51:51;6.63;;;5.97;;
23684;SDS011;12020;51.384;6.908;2022-07-24T07:56:48;6.85;;;6.03;;
23684;SDS011;12020;51.384;6.908;2022-07-24T07:59:14;6.35;;;5.75;;
23684;SDS011;12020;51.384;6.908;2022-07-24T08:01:40;6.75;;;6.10;;
23684;SDS011;12020;51.384;6.908;2022-07-24T08:04:07;7.45;;;6.53;;
23684;SDS011;12020;51.384;6.908;2022-07-24T08:06:34;7.03;;;6.32;;
23684;SDS011;12020;51.384;6.908;2022-07-24T08:09:03;6.10;;;5.50;;
23684;SDS011;12020;51.384;6.908;2022-07-24T08:11:30;6.95;;;6.35;;
23684;SDS011;12020;51.384;6.908;2022-07-24T08:13:57;6.35;;;5.60;;
23684;SDS011;12020;51.384;6.908;2022-07-24T08:18:54;6.50;;;5.90;;
23684;SDS011;12020;51.384;6.908;2022-07-24T08:21:21;6.10;;;5.50;;
23684;SDS011;12020;51.384;6.908;2022-07-24T08:23:55;6.88;;;6.10;;
23684;SDS011;12020;51.384;6.908;2022-07-24T08:26:23;6.80;;;6.00;;
23684;SDS011;12020;51.384;6.908;2022-07-24T08:28:51;7.10;;;6.40;;
23684;SDS011;12020;51.384;6.908;2022-07-24T08:31:25;6.40;;;5.80;;
23684;SDS011;12020;51.384;6.908;2022-07-24T08:33:59;7.30;;;6.10;;
23684;SDS011;12020;51.384;6.908;2022-07-24T08:36:25;7.57;;;5.90;;
23684;SDS011;12020;51.384;6.908;2022-07-24T08:38:59;7.25;;;6.55;;
23684;SDS011;12020;51.384;6.908;2022-07-24T08:46:30;7.07;;;6.40;;
23684;SDS011;12020;51.384;6.908;2022-07-24T08:48:58;7.32;;;6.57;;
23684;SDS011;12020;51.384;6.908;2022-07-24T08:54:05;7.47;;;6.07;;
23684;SDS011;12020;51.384;6.908;2022-07-24T08:56:34;6.80;;;6.13;;
23684;SDS011;12020;51.384;6.908;2022-07-24T09:01:56;7.57;;;6.87;;
23684;SDS011;12020;51.384;6.908;2022-07-24T09:07:16;7.78;;;6.97;;
23684;SDS011;12020;51.384;6.908;2022-07-24T09:09:57;6.95;;;6.28;;
23684;SDS011;12020;51.384;6.908;2022-07-24T09:12:34;8.88;;;6.57;;
23684;SDS011;12020;51.384;6.908;2022-07-24T09:15:14;6.95;;;6.35;;
23684;SDS011;12020;51.384;6.908;2022-07-24T09:17:50;6.50;;;5.90;;
23684;SDS011;12020;51.384;6.908;2022-07-24T09:20:23;7.10;;;6.50;;
23684;SDS011;12020;51.384;6.908;2022-07-24T09:22:56;7.47;;;6.68;;
23684;SDS011;12020;51.384;6.908;2022-07-24T09:25:26;8.13;;;6.30;;
23684;SDS011;12020;51.384;6.908;2022-07-24T09:27:58;8.27;;;6.22;;
23684;SDS011;12020;51.384;6.908;2022-07-24T09:30:35;7.30;;;6.53;;
23684;SDS011;12020;51.384;6.908;2022-07-24T09:33:17;7.10;;;6.40;;
23684;SDS011;12020;51.384;6.908;2022-07-24T09:35:46;7.45;;;6.20;;
23684;SDS011;12020;51.384;6.908;2022-07-24T09:38:19;6.37;;;5.70;;
23684;SDS011;12020;51.384;6.908;2022-07-24T09:40:47;6.43;;;5.88;;
23684;SDS011;12020;51.384;6.908;2022-07-24T09:43:24;7.50;;;6.80;;
23684;SDS011;12020;51.384;6.908;2022-07-24T09:46:05;6.63;;;6.03;;
23684;SDS011;12020;51.384;6.908;2022-07-24T09:48:41;6.60;;;6.00;;
23684;SDS011;12020;51.384;6.908;2022-07-24T09:51:22;7.95;;;6.30;;
23684;SDS011;12020;51.384;6.908;2022-07-24T09:53:53;6.97;;;6.13;;
23684;SDS011;12020;51.384;6.908;2022-07-24T09:56:20;7.45;;;6.65;;
23684;SDS011;12020;51.384;6.908;2022-07-24T09:58:48;7.03;;;6.00;;
23684;SDS011;12020;51.384;6.908;2022-07-24T10:01:18;6.78;;;6.00;;
23684;SDS011;12020;51.384;6.908;2022-07-24T10:03:46;6.53;;;5.65;;
23684;SDS011;12020;51.384;6.908;2022-07-24T10:08:51;6.93;;;6.10;;
23684;SDS011;12020;51.384;6.908;2022-07-24T10:14:02;6.45;;;5.85;;
23684;SDS011;12020;51.384;6.908;2022-07-24T10:21:34;6.60;;;6.00;;
23684;SDS011;12020;51.384;6.908;2022-07-24T10:29:08;7.97;;;5.78;;
23684;SDS011;12020;51.384;6.908;2022-07-24T10:31:44;6.13;;;5.53;;
23684;SDS011;12020;51.384;6.908;2022-07-24T10:45:48;7.00;;;6.30;;
23684;SDS011;12020;51.384;6.908;2022-07-24T10:48:32;7.20;;;5.78;;
23684;SDS011;12020;51.384;6.908;2022-07-24T10:51:06;6.30;;;5.70;;
23684;SDS011;12020;51.384;6.908;2022-07-24T10:53:47;6.80;;;6.20;;
23684;SDS011;12020;51.384;6.908;2022-07-24T10:58:54;7.30;;;5.87;;
23684;SDS011;12020;51.384;6.908;2022-07-24T11:01:36;6.60;;;5.73;;
23684;SDS011;12020;51.384;6.908;2022-07-24T11:14:25;6.70;;;6.00;;
23684;SDS011;12020;51.384;6.908;2022-07-24T11:20:14;7.00;;;6.40;;
23684;SDS011;12020;51.384;6.908;2022-07-24T11:22:41;6.60;;;6.00;;
23684;SDS011;12020;51.384;6.908;2022-07-24T11:25:14;6.43;;;5.73;;
23684;SDS011;12020;51.384;6.908;2022-07-24T11:27:41;6.20;;;5.60;;
23684;SDS011;12020;51.384;6.908;2022-07-24T11:30:23;6.22;;;5.63;;
23684;SDS011;12020;51.384;6.908;2022-07-24T11:32:54;6.17;;;5.57;;
23684;SDS011;12020;51.384;6.908;2022-07-24T11:35:33;6.13;;;5.50;;
23684;SDS011;12020;51.384;6.908;2022-07-24T11:38:03;6.53;;;5.70;;
23684;SDS011;12020;51.384;6.908;2022-07-24T11:40:31;6.03;;;5.43;;
23684;SDS011;12020;51.384;6.908;2022-07-24T11:42:58;5.78;;;5.18;;
23684;SDS011;12020;51.384;6.908;2022-07-24T11:45:36;5.88;;;5.32;;
23684;SDS011;12020;51.384;6.908;2022-07-24T11:48:05;5.95;;;5.35;;
23684;SDS011;12020;51.384;6.908;2022-07-24T11:50:32;5.47;;;4.97;;
23684;SDS011;12020;51.384;6.908;2022-07-24T11:53:09;5.43;;;4.93;;
23684;SDS011;12020;51.384;6.908;2022-07-24T11:55:38;6.32;;;5.00;;
23684;SDS011;12020;51.384;6.908;2022-07-24T11:58:06;5.60;;;5.10;;
23684;SDS011;12020;51.384;6.908;2022-07-24T12:00:34;6.00;;;5.05;;
23684;SDS011;12020;51.384;6.908;2022-07-24T12:03:00;5.55;;;4.93;;
23684;SDS011;12020;51.384;6.908;2022-07-24T12:05:33;5.78;;;5.10;;
23684;SDS011;12020;51.384;6.908;2022-07-24T12:08:05;5.63;;;5.07;;
23684;SDS011;12020;51.384;6.908;2022-07-24T12:10:55;5.22;;;4.75;;
23684;SDS011;12020;51.384;6.908;2022-07-24T12:13:22;5.20;;;4.70;;
23684;SDS011;12020;51.384;6.908;2022-07-24T12:15:48;5.65;;;4.80;;
23684;SDS011;12020;51.384;6.908;2022-07-24T12:18:14;5.53;;;5.03;;
23684;SDS011;12020;51.384;6.908;2022-07-24T12:20:40;5.65;;;5.10;;
23684;SDS011;12020;51.384;6.908;2022-07-24T12:23:10;6.15;;;4.75;;
23684;SDS011;12020;51.384;6.908;2022-07-24T12:25:39;4.93;;;4.53;;
23684;SDS011;12020;51.384;6.908;2022-07-24T12:28:14;5.38;;;4.85;;
23684;SDS011;12020;51.384;6.908;2022-07-24T12:30:45;6.53;;;4.60;;
23684;SDS011;12020;51.384;6.908;2022-07-24T12:33:19;5.38;;;4.53;;
23684;SDS011;12020;51.384;6.908;2022-07-24T12:36:07;5.28;;;4.45;;
23684;SDS011;12020;51.384;6.908;2022-07-24T12:38:54;5.60;;;4.70;;
23684;SDS011;12020;51.384;6.908;2022-07-24T12:41:21;5.37;;;4.50;;
23684;SDS011;12020;51.384;6.908;2022-07-24T12:43:53;5.20;;;4.50;;
23684;SDS011;12020;51.384;6.908;2022-07-24T12:46:24;5.10;;;4.53;;
23684;SDS011;12020;51.384;6.908;2022-07-24T12:48:56;4.70;;;4.30;;
23684;SDS011;12020;51.384;6.908;2022-07-24T12:51:46;5.00;;;4.50;;
23684;SDS011;12020;51.384;6.908;2022-07-24T12:57:09;4.80;;;4.40;;
23684;SDS011;12020;51.384;6.908;2022-07-24T13:02:04;5.23;;;4.13;;
23684;SDS011;12020;51.384;6.908;2022-07-24T13:04:32;4.28;;;3.97;;
23684;SDS011;12020;51.384;6.908;2022-07-24T13:07:08;4.40;;;4.03;;
23684;SDS011;12020;51.384;6.908;2022-07-24T13:12:07;4.00;;;3.60;;
23684;SDS011;12020;51.384;6.908;2022-07-24T13:14:34;4.20;;;3.80;;
23684;SDS011;12020;51.384;6.908;2022-07-24T13:17:05;3.50;;;3.20;;
23684;SDS011;12020;51.384;6.908;2022-07-24T13:19:48;3.97;;;3.43;;
23684;SDS011;12020;51.384;6.908;2022-07-24T13:22:16;4.90;;;3.40;;
23684;SDS011;12020;51.384;6.908;2022-07-24T13:24:42;3.77;;;3.47;;
23684;SDS011;12020;51.384;6.908;2022-07-24T13:27:10;4.27;;;3.67;;
23684;SDS011;12020;51.384;6.908;2022-07-24T13:29:40;3.83;;;3.50;;
23684;SDS011;12020;51.384;6.908;2022-07-24T13:32:14;3.60;;;3.30;;
23684;SDS011;12020;51.384;6.908;2022-07-24T13:34:40;3.83;;;3.53;;
23684;SDS011;12020;51.384;6.908;2022-07-24T13:37:12;4.03;;;3.63;;
23684;SDS011;12020;51.384;6.908;2022-07-24T13:39:38;4.10;;;3.80;;
23684;SDS011;12020;51.384;6.908;2022-07-24T13:42:10;4.30;;;3.90;;
23684;SDS011;12020;51.384;6.908;2022-07-24T13:44:37;5.38;;;3.80;;
23684;SDS011;12020;51.384;6.908;2022-07-24T13:47:04;5.00;;;3.70;;
23684;SDS011;12020;51.384;6.908;2022-07-24T13:49:30;4.93;;;4.05;;
23684;SDS011;12020;51.384;6.908;2022-07-24T13:51:56;4.40;;;4.00;;
23684;SDS011;12020;51.384;6.908;2022-07-24T13:54:22;4.35;;;3.83;;
23684;SDS011;12020;51.384;6.908;2022-07-24T13:56:53;4.40;;;3.97;;
23684;SDS011;12020;51.384;6.908;2022-07-24T13:59:19;4.40;;;4.00;;
23684;SDS011;12020;51.384;6.908;2022-07-24T14:01:48;4.80;;;4.40;;
23684;SDS011;12020;51.384;6.908;2022-07-24T14:04:29;4.22;;;3.85;;
23684;SDS011;12020;51.384;6.908;2022-07-24T14:07:03;4.47;;;4.07;;
23684;SDS011;12020;51.384;6.908;2022-07-24T14:09:29;4.32;;;3.92;;
23684;SDS011;12020;51.384;6.908;2022-07-24T14:11:54;5.38;;;4.15;;
23684;SDS011;12020;51.384;6.908;2022-07-24T14:14:20;4.77;;;4.10;;
23684;SDS011;12020;51.384;6.908;2022-07-24T14:19:16;4.28;;;3.90;;
23684;SDS011;12020;51.384;6.908;2022-07-24T14:21:45;4.88;;;4.35;;
23684;SDS011;12020;51.384;6.908;2022-07-24T14:24:15;5.10;;;4.63;;
23684;SDS011;12020;51.384;6.908;2022-07-24T14:31:42;5.68;;;4.60;;
23684;SDS011;12020;51.384;6.908;2022-07-24T14:34:15;6.03;;;4.53;;
23684;SDS011;12020;51.384;6.908;2022-07-24T14:36:48;4.80;;;4.32;;
23684;SDS011;12020;51.384;6.908;2022-07-24T14:39:13;4.90;;;4.40;;
23684;SDS011;12020;51.384;6.908;2022-07-24T14:41:39;5.22;;;4.10;;
23684;SDS011;12020;51.384;6.908;2022-07-24T14:44:11;5.20;;;4.70;;
23684;SDS011;12020;51.384;6.908;2022-07-24T14:46:38;4.82;;;4.43;;
23684;SDS011;12020;51.384;6.908;2022-07-24T14:51:34;4.80;;;4.40;;
23684;SDS011;12020;51.384;6.908;2022-07-24T14:54:03;4.90;;;4.40;;
23684;SDS011;12020;51.384;6.908;2022-07-24T14:56:36;5.93;;;4.35;;
23684;SDS011;12020;51.384;6.908;2022-07-24T15:01:35;5.72;;;5.05;;
23684;SDS011;12020;51.384;6.908;2022-07-24T15:04:01;5.68;;;5.18;;
23684;SDS011;12020;51.384;6.908;2022-07-24T15:06:28;5.50;;;5.00;;
23684;SDS011;12020;51.384;6.908;2022-07-24T15:11:24;5.57;;;5.13;;
23684;SDS011;12020;51.384;6.908;2022-07-24T15:16:25;5.68;;;4.93;;
23684;SDS011;12020;51.384;6.908;2022-07-24T15:18:52;5.82;;;4.85;;
23684;SDS011;12020;51.384;6.908;2022-07-24T15:21:18;5.85;;;5.25;;
23684;SDS011;12020;51.384;6.908;2022-07-24T15:23:45;5.63;;;5.13;;
23684;SDS011;12020;51.384;6.908;2022-07-24T15:26:15;5.60;;;5.10;;
23684;SDS011;12020;51.384;6.908;2022-07-24T15:28:43;5.38;;;4.88;;
23684;SDS011;12020;51.384;6.908;2022-07-24T15:31:09;5.50;;;5.00;;
23684;SDS011;12020;51.384;6.908;2022-07-24T15:33:36;5.57;;;5.00;;
23684;SDS011;12020;51.384;6.908;2022-07-24T15:36:02;5.25;;;4.72;;
23684;SDS011;12020;51.384;6.908;2022-07-24T15:38:31;5.53;;;5.03;;
23684;SDS011;12020;51.384;6.908;2022-07-24T15:40:57;5.80;;;5.30;;
23684;SDS011;12020;51.384;6.908;2022-07-24T15:43:24;5.90;;;5.32;;
23684;SDS011;12020;51.384;6.908;2022-07-24T15:45:51;5.77;;;5.17;;
23684;SDS011;12020;51.384;6.908;2022-07-24T15:50:48;5.50;;;5.00;;
23684;SDS011;12020;51.384;6.908;2022-07-24T15:53:14;5.70;;;5.18;;
23684;SDS011;12020;51.384;6.908;2022-07-24T15:55:40;6.07;;;5.47;;
23684;SDS011;12020;51.384;6.908;2022-07-24T16:00:37;6.03;;;5.33;;
23684;SDS011;12020;51.384;6.908;2022-07-24T16:03:03;5.90;;;5.40;;
23684;SDS011;12020;51.384;6.908;2022-07-24T16:05:32;6.57;;;5.70;;
23684;SDS011;12020;51.384;6.908;2022-07-24T16:08:03;5.70;;;5.00;;
23684;SDS011;12020;51.384;6.908;2022-07-24T16:10:31;5.68;;;5.18;;
23684;SDS011;12020;51.384;6.908;2022-07-24T16:12:57;5.80;;;5.30;;
23684;SDS011;12020;51.384;6.908;2022-07-24T16:15:24;5.78;;;5.20;;
23684;SDS011;12020;51.384;6.908;2022-07-24T16:17:51;5.78;;;5.25;;
23684;SDS011;12020;51.384;6.908;2022-07-24T16:20:18;5.70;;;5.20;;
23684;SDS011;12020;51.384;6.908;2022-07-24T16:22:45;5.78;;;5.18;;
23684;SDS011;12020;51.384;6.908;2022-07-24T16:27:42;5.97;;;5.15;;
23684;SDS011;12020;51.384;6.908;2022-07-24T16:30:10;5.88;;;5.32;;
23684;SDS011;12020;51.384;6.908;2022-07-24T16:32:36;6.03;;;5.50;;
23684;SDS011;12020;51.384;6.908;2022-07-24T16:35:02;5.55;;;5.15;;
23684;SDS011;12020;51.384;6.908;2022-07-24T16:37:30;5.90;;;5.40;;
23684;SDS011;12020;51.384;6.908;2022-07-24T16:39:58;5.72;;;5.10;;